SHT23A EGLL-EGJB
Flight info
| Callsign | SHT23A |
|---|---|
| Flight time | N/A |
| Altitude | 18000 |
| Route | GASGU2J GASGU N866 SAM N63 LELNA LELNA1V |
| Aircraft | A319/M-SDE3FGHIRWY/LB1 |
Departure
| Time | N/A |
|---|---|
| Airport | London Heathrow Airport (EGLL) |
Arrival
| Time | 2026-04-23 20:45 |
|---|---|
| Airport | Guernsey Airport (EGJB) |
| Time | Latitude | Longitude | Altitude | Speed | Heading |
|---|---|---|---|---|---|
| 2026-04-23 20:27 | 50.45441 | -1.74145 | 18344 ft | 386 kts | 204° |
| 2026-04-23 20:28 | 50.43034 | -1.76023 | 18341 ft | 386 kts | 203° |
| 2026-04-23 20:28 | 50.40636 | -1.77894 | 18346 ft | 386 kts | 204° |
| 2026-04-23 20:28 | 50.38233 | -1.79771 | 18344 ft | 386 kts | 203° |
| 2026-04-23 20:28 | 50.35829 | -1.81650 | 18339 ft | 386 kts | 202° |
| 2026-04-23 20:29 | 50.33426 | -1.83524 | 18338 ft | 387 kts | 203° |
| 2026-04-23 20:29 | 50.31013 | -1.85400 | 18329 ft | 387 kts | 204° |
| 2026-04-23 20:29 | 50.28606 | -1.87269 | 18324 ft | 387 kts | 203° |
| 2026-04-23 20:29 | 50.26191 | -1.89138 | 18319 ft | 388 kts | 202° |
| 2026-04-23 20:30 | 50.23768 | -1.91006 | 18317 ft | 388 kts | 202° |
| 2026-04-23 20:30 | 50.18115 | -1.95366 | 18317 ft | 388 kts | 203° |
| 2026-04-23 20:30 | 50.13274 | -1.99107 | 18322 ft | 388 kts | 204° |
| 2026-04-23 20:31 | 50.08422 | -2.02851 | 18316 ft | 389 kts | 203° |
| 2026-04-23 20:31 | 50.03564 | -2.06577 | 18315 ft | 389 kts | 203° |
| 2026-04-23 20:31 | 49.98788 | -2.10548 | 18309 ft | 393 kts | 212° |
| 2026-04-23 20:31 | 49.94884 | -2.16509 | 18312 ft | 396 kts | 226° |
| 2026-04-23 20:32 | 49.91045 | -2.23258 | 17203 ft | 399 kts | 226° |
| 2026-04-23 20:32 | 49.89219 | -2.26454 | 16803 ft | 391 kts | 225° |
| 2026-04-23 20:32 | 49.87436 | -2.29569 | 16370 ft | 383 kts | 227° |
| 2026-04-23 20:32 | 49.85652 | -2.32677 | 15401 ft | 389 kts | 227° |
| 2026-04-23 20:33 | 49.83870 | -2.35770 | 14566 ft | 381 kts | 226° |
| 2026-04-23 20:33 | 49.82114 | -2.38812 | 13614 ft | 377 kts | 225° |
| 2026-04-23 20:33 | 49.80469 | -2.41662 | 12741 ft | 370 kts | 226° |
| 2026-04-23 20:33 | 49.78773 | -2.44602 | 11867 ft | 364 kts | 225° |
| 2026-04-23 20:34 | 49.77093 | -2.47507 | 11030 ft | 359 kts | 224° |
| 2026-04-23 20:34 | 49.75441 | -2.50364 | 10397 ft | 349 kts | 224° |
| 2026-04-23 20:34 | 49.73882 | -2.53067 | 10265 ft | 323 kts | 225° |
| 2026-04-23 20:34 | 49.72447 | -2.55551 | 9957 ft | 308 kts | 225° |
| 2026-04-23 20:35 | 49.71032 | -2.57990 | 9422 ft | 306 kts | 224° |
| 2026-04-23 20:35 | 49.70074 | -2.59636 | 9233 ft | 301 kts | 224° |
| 2026-04-23 20:35 | 49.68119 | -2.62578 | 8506 ft | 294 kts | 217° |
| 2026-04-23 20:35 | 49.66555 | -2.64613 | 7788 ft | 295 kts | 215° |
| 2026-04-23 20:36 | 49.64965 | -2.66589 | 7302 ft | 290 kts | 214° |
| 2026-04-23 20:36 | 49.63418 | -2.68511 | 6916 ft | 281 kts | 214° |
| 2026-04-23 20:36 | 49.61924 | -2.70390 | 6695 ft | 278 kts | 214° |
| 2026-04-23 20:36 | 49.60428 | -2.72288 | 6409 ft | 278 kts | 215° |
| 2026-04-23 20:37 | 49.58942 | -2.74186 | 6122 ft | 278 kts | 214° |
| 2026-04-23 20:37 | 49.57463 | -2.76084 | 5850 ft | 276 kts | 215° |
| 2026-04-23 20:37 | 49.55989 | -2.77980 | 5571 ft | 275 kts | 214° |
| 2026-04-23 20:37 | 49.54524 | -2.79868 | 5297 ft | 274 kts | 215° |
| 2026-04-23 20:38 | 49.53063 | -2.81747 | 5035 ft | 270 kts | 216° |
| 2026-04-23 20:38 | 49.51655 | -2.83556 | 4774 ft | 257 kts | 215° |
| 2026-04-23 20:38 | 49.50307 | -2.85287 | 4467 ft | 248 kts | 215° |
| 2026-04-23 20:38 | 49.49012 | -2.86953 | 4192 ft | 237 kts | 213° |
| 2026-04-23 20:39 | 49.47784 | -2.88535 | 3968 ft | 224 kts | 213° |
| 2026-04-23 20:39 | 49.46613 | -2.90035 | 3784 ft | 214 kts | 211° |
| 2026-04-23 20:39 | 49.45340 | -2.90919 | 3712 ft | 190 kts | 180° |
| 2026-04-23 20:39 | 49.44121 | -2.90661 | 3637 ft | 170 kts | 152° |
| 2026-04-23 20:40 | 49.43208 | -2.89593 | 3558 ft | 166 kts | 127° |
| 2026-04-23 20:40 | 49.42739 | -2.87984 | 3490 ft | 167 kts | 102° |
| 2026-04-23 20:40 | 49.42737 | -2.86191 | 3415 ft | 168 kts | 92° |
| 2026-04-23 20:40 | 49.42793 | -2.84460 | 3245 ft | 158 kts | 92° |
| 2026-04-23 20:41 | 49.42844 | -2.82821 | 3048 ft | 150 kts | 92° |
| 2026-04-23 20:41 | 49.42891 | -2.81228 | 2850 ft | 151 kts | 92° |
| 2026-04-23 20:41 | 49.42939 | -2.79601 | 2650 ft | 149 kts | 92° |
| 2026-04-23 20:41 | 49.42984 | -2.78056 | 2454 ft | 146 kts | 92° |
| 2026-04-23 20:42 | 49.43030 | -2.76506 | 2259 ft | 145 kts | 92° |
| 2026-04-23 20:42 | 49.43075 | -2.74966 | 2070 ft | 143 kts | 92° |
| 2026-04-23 20:42 | 49.43119 | -2.73486 | 1877 ft | 133 kts | 92° |
| 2026-04-23 20:42 | 49.43158 | -2.72130 | 1711 ft | 124 kts | 92° |
| 2026-04-23 20:43 | 49.43196 | -2.70820 | 1541 ft | 123 kts | 91° |
| 2026-04-23 20:43 | 49.43233 | -2.69516 | 1381 ft | 121 kts | 90° |
| 2026-04-23 20:43 | 49.43269 | -2.68232 | 1220 ft | 120 kts | 90° |
| 2026-04-23 20:43 | 49.43306 | -2.66938 | 1043 ft | 123 kts | 87° |
| 2026-04-23 20:44 | 49.43343 | -2.65626 | 882 ft | 122 kts | 86° |
| 2026-04-23 20:44 | 49.43379 | -2.64333 | 715 ft | 122 kts | 85° |
| 2026-04-23 20:44 | 49.43418 | -2.63032 | 564 ft | 121 kts | 84° |
| 2026-04-23 20:44 | 49.43453 | -2.61751 | 394 ft | 119 kts | 83° |
| 2026-04-23 20:45 | 49.43490 | -2.60543 | 308 ft | 97 kts | 87° |
| 2026-04-23 20:45 | 49.43504 | -2.59953 | 320 ft | 16 kts | 87° |
| 2026-04-23 20:45 | 49.43481 | -2.59873 | 322 ft | 10 kts | 152° |
| 2026-04-23 20:45 | 49.43417 | -2.59861 | 325 ft | 9 kts | 175° |
| 2026-04-23 20:46 | 49.43364 | -2.59851 | 322 ft | 8 kts | 163° |
| 2026-04-23 20:46 | 49.43344 | -2.59813 | 327 ft | 2 kts | 99° |
| 2026-04-23 20:46 | 49.43350 | -2.59762 | 328 ft | 9 kts | 73° |
| 2026-04-23 20:46 | 49.43337 | -2.59690 | 327 ft | 9 kts | 162° |
| 2026-04-23 20:47 | 49.43284 | -2.59686 | 328 ft | 3 kts | 178° |
| 2026-04-23 20:47 | 49.43266 | -2.59685 | 328 ft | 2 kts | 178° |
| 2026-04-23 20:47 | 49.43257 | -2.59684 | 328 ft | 2 kts | 177° |
| 2026-04-23 20:47 | 49.43253 | -2.59684 | 328 ft | 0 kts | 178° |